CheckWX is a tool to help pilots better visualize weather data.  It is not intended as a substitute for an official pre-flight weather briefing.

01:54:26 UTC

ESPA METAR
Luleå Airport
Luleå, Sweden
Current

34 mins ago

ESPA 190120Z AUTO 15016KT 9999 BKN039/// BKN062/// OVC078/// 16/13 Q1004
Observed
Aug-19 @ 01:20 UTC
Wind
  • 150° at 16 KTS
Visibility
10,000+ meters
Flight Rules
VFR
Cloud Levels
  • Broken at 3,900' AGL
  • Broken at 6,200' AGL
  • Overcast at 7,800' AGL
Temperature
16°C / 61°F
Dewpoint
13°C / 55°F
Humidity
83%
Altimeter
29.65" Hg
Pressure
1003.92 hPa
Previous

1 hour ago

ESPA 190050Z AUTO 15015KT 9999 FEW030/// SCT035/// BKN046/// OVC062/// 16/13 Q1004
Observed
Aug-19 @ 00:50 UTC
Wind
  • 150° at 15 KTS
Visibility
10,000+ meters
Flight Rules
VFR
Cloud Levels
  • Few at 3,000' AGL
  • Scattered at 3,500' AGL
  • Broken at 4,600' AGL
  • Overcast at 6,200' AGL
Temperature
16°C / 61°F
Dewpoint
13°C / 55°F
Humidity
83%
Altimeter
29.65" Hg
Pressure
1003.92 hPa
Previous

2 hours ago

ESPA 190020Z AUTO 14014KT 9999 OVC027/// 16/14 Q1004
Observed
Aug-19 @ 00:20 UTC
Wind
  • 140° at 14 KTS
Visibility
10,000+ meters
Flight Rules
MVFR
Cloud Levels
  • Overcast at 2,700' AGL
Temperature
16°C / 61°F
Dewpoint
14°C / 57°F
Humidity
88%
Altimeter
29.65" Hg
Pressure
1003.92 hPa